sensor_id;sensor_type;location;lat;lon;timestamp;pressure;altitude;pressure_sealevel;temperature;humidity
48652;BME280;34442;52.362;-1.302;2023-03-17T00:00:19;98863.56;;;10.73;100.00
48652;BME280;34442;52.362;-1.302;2023-03-17T00:02:47;98864.66;;;10.72;100.00
48652;BME280;34442;52.362;-1.302;2023-03-17T00:07:41;98872.44;;;10.74;100.00
48652;BME280;34442;52.362;-1.302;2023-03-17T00:10:16;98874.09;;;10.75;100.00
48652;BME280;34442;52.362;-1.302;2023-03-17T00:12:42;98879.16;;;10.71;100.00
48652;BME280;34442;52.362;-1.302;2023-03-17T00:15:08;98881.84;;;10.71;100.00
48652;BME280;34442;52.362;-1.302;2023-03-17T00:17:34;98874.59;;;10.72;100.00
48652;BME280;34442;52.362;-1.302;2023-03-17T00:20:01;98874.09;;;10.91;100.00
48652;BME280;34442;52.362;-1.302;2023-03-17T00:22:26;98884.50;;;11.05;100.00
48652;BME280;34442;52.362;-1.302;2023-03-17T00:24:52;98889.38;;;11.08;100.00
48652;BME280;34442;52.362;-1.302;2023-03-17T00:27:17;98890.53;;;11.12;100.00
48652;BME280;34442;52.362;-1.302;2023-03-17T00:29:43;98884.56;;;11.10;100.00
48652;BME280;34442;52.362;-1.302;2023-03-17T00:32:15;98898.00;;;11.10;100.00
48652;BME280;34442;52.362;-1.302;2023-03-17T00:34:41;98892.41;;;11.11;100.00
48652;BME280;34442;52.362;-1.302;2023-03-17T00:37:09;98898.00;;;11.10;100.00
48652;BME280;34442;52.362;-1.302;2023-03-17T00:39:37;98889.72;;;11.11;100.00
48652;BME280;34442;52.362;-1.302;2023-03-17T00:42:05;98893.44;;;11.10;100.00
48652;BME280;34442;52.362;-1.302;2023-03-17T00:44:31;98894.25;;;11.11;100.00
48652;BME280;34442;52.362;-1.302;2023-03-17T00:46:57;98894.09;;;11.17;100.00
48652;BME280;34442;52.362;-1.302;2023-03-17T00:49:23;98884.63;;;11.15;100.00
48652;BME280;34442;52.362;-1.302;2023-03-17T00:51:50;98879.78;;;11.12;100.00
48652;BME280;34442;52.362;-1.302;2023-03-17T00:54:17;98879.78;;;11.12;100.00
48652;BME280;34442;52.362;-1.302;2023-03-17T00:56:43;98884.56;;;11.10;100.00
48652;BME280;34442;52.362;-1.302;2023-03-17T00:59:20;98887.50;;;11.08;100.00
48652;BME280;34442;52.362;-1.302;2023-03-17T01:01:48;98884.34;;;11.11;100.00
48652;BME280;34442;52.362;-1.302;2023-03-17T01:04:13;98891.34;;;11.12;100.00
48652;BME280;34442;52.362;-1.302;2023-03-17T01:06:39;98884.56;;;11.10;100.00
48652;BME280;34442;52.362;-1.302;2023-03-17T01:09:06;98881.88;;;11.10;100.00
48652;BME280;34442;52.362;-1.302;2023-03-17T01:11:32;98883.75;;;11.09;100.00
48652;BME280;34442;52.362;-1.302;2023-03-17T01:13:58;98876.28;;;11.11;100.00
48652;BME280;34442;52.362;-1.302;2023-03-17T01:16:23;98881.38;;;11.13;100.00
48652;BME280;34442;52.362;-1.302;2023-03-17T01:18:48;98883.75;;;11.09;100.00
48652;BME280;34442;52.362;-1.302;2023-03-17T01:21:14;98895.00;;;11.06;100.00
48652;BME280;34442;52.362;-1.302;2023-03-17T01:23:40;98890.69;;;11.05;100.00
48652;BME280;34442;52.362;-1.302;2023-03-17T01:26:06;98891.75;;;11.04;100.00
48652;BME280;34442;52.362;-1.302;2023-03-17T01:28:32;98903.31;;;11.05;100.00
48652;BME280;34442;52.362;-1.302;2023-03-17T01:30:58;98893.97;;;11.07;100.00
48652;BME280;34442;52.362;-1.302;2023-03-17T01:33:24;98897.13;;;11.04;100.00
48652;BME280;34442;52.362;-1.302;2023-03-17T01:35:50;98894.19;;;11.06;100.00
48652;BME280;34442;52.362;-1.302;2023-03-17T01:38:16;98895.75;;;11.02;100.00
48652;BME280;34442;52.362;-1.302;2023-03-17T01:40:48;98902.44;;;10.99;100.00
48652;BME280;34442;52.362;-1.302;2023-03-17T01:43:18;98899.50;;;11.01;100.00
48652;BME280;34442;52.362;-1.302;2023-03-17T01:48:53;98889.56;;;11.01;100.00
48652;BME280;34442;52.362;-1.302;2023-03-17T01:51:29;98887.66;;;11.02;100.00
48652;BME280;34442;52.362;-1.302;2023-03-17T01:54:02;98891.16;;;11.02;100.00
48652;BME280;34442;52.362;-1.302;2023-03-17T01:56:29;98893.88;;;11.02;100.00
48652;BME280;34442;52.362;-1.302;2023-03-17T01:58:58;98889.56;;;11.01;100.00
48652;BME280;34442;52.362;-1.302;2023-03-17T02:01:28;98887.88;;;10.95;100.00
48652;BME280;34442;52.362;-1.302;2023-03-17T02:03:57;98888.34;;;10.92;100.00
48652;BME280;34442;52.362;-1.302;2023-03-17T02:06:23;98873.59;;;10.95;100.00
48652;BME280;34442;52.362;-1.302;2023-03-17T02:08:50;98868.22;;;10.95;100.00
48652;BME280;34442;52.362;-1.302;2023-03-17T02:11:17;98867.38;;;10.94;100.00
48652;BME280;34442;52.362;-1.302;2023-03-17T02:13:43;98870.59;;;10.91;100.00
48652;BME280;34442;52.362;-1.302;2023-03-17T02:16:13;98869.78;;;10.90;100.00
48652;BME280;34442;52.362;-1.302;2023-03-17T02:18:40;98868.22;;;10.95;100.00
48652;BME280;34442;52.362;-1.302;2023-03-17T02:23:54;98869.53;;;10.92;100.00
48652;BME280;34442;52.362;-1.302;2023-03-17T02:26:21;98873.50;;;10.89;100.00
48652;BME280;34442;52.362;-1.302;2023-03-17T02:28:49;98872.38;;;10.85;100.00
48652;BME280;34442;52.362;-1.302;2023-03-17T02:31:14;98859.75;;;10.86;100.00
48652;BME280;34442;52.362;-1.302;2023-03-17T02:33:40;98858.84;;;10.80;100.00
48652;BME280;34442;52.362;-1.302;2023-03-17T02:36:07;98848.91;;;10.81;100.00
48652;BME280;34442;52.362;-1.302;2023-03-17T02:38:34;98854.34;;;10.86;100.00
48652;BME280;34442;52.362;-1.302;2023-03-17T02:41:00;98835.25;;;10.82;100.00
48652;BME280;34442;52.362;-1.302;2023-03-17T02:43:25;98837.84;;;10.77;100.00
48652;BME280;34442;52.362;-1.302;2023-03-17T02:45:51;98840.44;;;10.72;100.00
48652;BME280;34442;52.362;-1.302;2023-03-17T02:48:17;98843.88;;;10.67;100.00
48652;BME280;34442;52.362;-1.302;2023-03-17T02:50:43;98850.53;;;10.65;100.00
48652;BME280;34442;52.362;-1.302;2023-03-17T02:53:08;98859.75;;;10.69;100.00
48652;BME280;34442;52.362;-1.302;2023-03-17T02:55:34;98857.31;;;10.67;100.00
48652;BME280;34442;52.362;-1.302;2023-03-17T02:58:03;98854.38;;;10.69;100.00
48652;BME280;34442;52.362;-1.302;2023-03-17T03:00:29;98865.13;;;10.69;100.00
48652;BME280;34442;52.362;-1.302;2023-03-17T03:02:55;98862.94;;;10.66;100.00
48652;BME280;34442;52.362;-1.302;2023-03-17T03:05:21;98865.13;;;10.69;100.00
48652;BME280;34442;52.362;-1.302;2023-03-17T03:07:46;98856.59;;;10.72;100.00
48652;BME280;34442;52.362;-1.302;2023-03-17T03:10:11;98867.06;;;10.74;100.00
48652;BME280;34442;52.362;-1.302;2023-03-17T03:12:38;98864.97;;;10.76;100.00
48652;BME280;34442;52.362;-1.302;2023-03-17T03:15:05;98860.88;;;10.73;100.00
48652;BME280;34442;52.362;-1.302;2023-03-17T03:17:31;98866.53;;;10.72;100.00
48652;BME280;34442;52.362;-1.302;2023-03-17T03:19:56;98862.22;;;10.71;100.00
48652;BME280;34442;52.362;-1.302;2023-03-17T03:22:22;98866.03;;;10.75;100.00
48652;BME280;34442;52.362;-1.302;2023-03-17T03:24:47;98869.28;;;10.77;100.00
48652;BME280;34442;52.362;-1.302;2023-03-17T03:27:13;98867.41;;;10.77;100.00
48652;BME280;34442;52.362;-1.302;2023-03-17T03:29:38;98873.28;;;10.74;100.00
48652;BME280;34442;52.362;-1.302;2023-03-17T03:32:04;98877.81;;;10.74;100.00
48652;BME280;34442;52.362;-1.302;2023-03-17T03:34:29;98874.31;;;10.73;100.00
48652;BME280;34442;52.362;-1.302;2023-03-17T03:36:55;98864.56;;;10.67;100.00
48652;BME280;34442;52.362;-1.302;2023-03-17T03:39:21;98867.91;;;10.74;100.00
48652;BME280;34442;52.362;-1.302;2023-03-17T03:41:46;98862.03;;;10.77;100.00
48652;BME280;34442;52.362;-1.302;2023-03-17T03:44:11;98855.63;;;10.78;100.00
48652;BME280;34442;52.362;-1.302;2023-03-17T03:46:37;98857.16;;;10.74;100.00
48652;BME280;34442;52.362;-1.302;2023-03-17T03:49:02;98843.88;;;10.67;100.00
48652;BME280;34442;52.362;-1.302;2023-03-17T03:51:28;98847.06;;;10.64;100.00
48652;BME280;34442;52.362;-1.302;2023-03-17T03:53:53;98848.25;;;11.07;100.00
48652;BME280;34442;52.362;-1.302;2023-03-17T03:56:18;98856.28;;;11.24;100.00
48652;BME280;34442;52.362;-1.302;2023-03-17T03:58:44;98858.53;;;11.32;100.00
48652;BME280;34442;52.362;-1.302;2023-03-17T04:01:09;98853.38;;;11.31;100.00
48652;BME280;34442;52.362;-1.302;2023-03-17T04:03:36;98859.34;;;10.77;100.00
48652;BME280;34442;52.362;-1.302;2023-03-17T04:06:02;98852.44;;;10.64;100.00
48652;BME280;34442;52.362;-1.302;2023-03-17T04:08:27;98864.31;;;10.52;100.00
48652;BME280;34442;52.362;-1.302;2023-03-17T04:10:53;98857.97;;;10.41;100.00
48652;BME280;34442;52.362;-1.302;2023-03-17T04:13:18;98851.19;;;10.38;100.00
48652;BME280;34442;52.362;-1.302;2023-03-17T04:15:43;98852.41;;;10.31;100.00
48652;BME280;34442;52.362;-1.302;2023-03-17T04:18:09;98848.03;;;10.25;100.00
48652;BME280;34442;52.362;-1.302;2023-03-17T04:20:35;98840.63;;;10.20;100.00
48652;BME280;34442;52.362;-1.302;2023-03-17T04:23:01;98845.94;;;10.15;100.00
48652;BME280;34442;52.362;-1.302;2023-03-17T04:25:27;98852.28;;;10.09;100.00
48652;BME280;34442;52.362;-1.302;2023-03-17T04:27:52;98856.00;;;10.08;100.00
48652;BME280;34442;52.362;-1.302;2023-03-17T04:30:17;98852.03;;;10.10;100.00
48652;BME280;34442;52.362;-1.302;2023-03-17T04:32:43;98853.66;;;10.11;100.00
48652;BME280;34442;52.362;-1.302;2023-03-17T04:35:14;98856.91;;;10.13;100.00
48652;BME280;34442;52.362;-1.302;2023-03-17T04:37:40;98858.22;;;10.11;100.00
48652;BME280;34442;52.362;-1.302;2023-03-17T04:40:07;98863.00;;;10.09;100.00
48652;BME280;34442;52.362;-1.302;2023-03-17T04:42:35;98864.97;;;10.13;100.00
48652;BME280;34442;52.362;-1.302;2023-03-17T04:45:01;98866.59;;;10.14;100.00
48652;BME280;34442;52.362;-1.302;2023-03-17T04:47:26;98871.72;;;10.16;100.00
48652;BME280;34442;52.362;-1.302;2023-03-17T04:49:52;98865.19;;;10.12;100.00
48652;BME280;34442;52.362;-1.302;2023-03-17T04:52:17;98870.72;;;10.05;100.00
48652;BME280;34442;52.362;-1.302;2023-03-17T04:54:42;98863.16;;;10.02;100.00
48652;BME280;34442;52.362;-1.302;2023-03-17T04:57:08;98861.66;;;9.94;100.00
48652;BME280;34442;52.362;-1.302;2023-03-17T04:59:34;98872.19;;;9.96;100.00
48652;BME280;34442;52.362;-1.302;2023-03-17T05:01:59;98881.00;;;10.37;100.00
48652;BME280;34442;52.362;-1.302;2023-03-17T05:04:25;98875.41;;;10.55;100.00
48652;BME280;34442;52.362;-1.302;2023-03-17T05:06:50;98876.56;;;10.02;100.00
48652;BME280;34442;52.362;-1.302;2023-03-17T05:09:16;98870.44;;;9.90;100.00
48652;BME280;34442;52.362;-1.302;2023-03-17T05:11:41;98864.72;;;9.86;100.00
48652;BME280;34442;52.362;-1.302;2023-03-17T05:14:07;98868.22;;;9.87;100.00
48652;BME280;34442;52.362;-1.302;2023-03-17T05:16:32;98878.63;;;9.83;100.00
48652;BME280;34442;52.362;-1.302;2023-03-17T05:18:57;98879.59;;;9.77;100.00
48652;BME280;34442;52.362;-1.302;2023-03-17T05:21:23;98874.69;;;9.74;100.00
48652;BME280;34442;52.362;-1.302;2023-03-17T05:23:49;98882.66;;;9.69;100.00
48652;BME280;34442;52.362;-1.302;2023-03-17T05:26:14;98869.69;;;9.66;100.00
48652;BME280;34442;52.362;-1.302;2023-03-17T05:28:40;98874.25;;;9.65;100.00
48652;BME280;34442;52.362;-1.302;2023-03-17T05:31:05;98880.44;;;9.66;100.00
48652;BME280;34442;52.362;-1.302;2023-03-17T05:33:31;98884.63;;;9.62;100.00
48652;BME280;34442;52.362;-1.302;2023-03-17T05:35:57;98881.75;;;9.63;100.00
48652;BME280;34442;52.362;-1.302;2023-03-17T05:38:22;98881.97;;;9.62;100.00
48652;BME280;34442;52.362;-1.302;2023-03-17T05:40:49;98891.03;;;9.73;100.00
48652;BME280;34442;52.362;-1.302;2023-03-17T05:43:15;98893.25;;;9.76;100.00
48652;BME280;34442;52.362;-1.302;2023-03-17T05:45:41;98890.78;;;9.74;100.00
48652;BME280;34442;52.362;-1.302;2023-03-17T05:48:07;98887.72;;;9.82;100.00
48652;BME280;34442;52.362;-1.302;2023-03-17T05:50:33;98888.53;;;9.83;100.00
48652;BME280;34442;52.362;-1.302;2023-03-17T05:52:58;98895.22;;;9.80;100.00
48652;BME280;34442;52.362;-1.302;2023-03-17T05:55:24;98890.56;;;9.76;100.00
48652;BME280;34442;52.362;-1.302;2023-03-17T05:57:49;98887.53;;;9.72;100.00
48652;BME280;34442;52.362;-1.302;2023-03-17T06:00:15;98892.91;;;9.72;100.00
48652;BME280;34442;52.362;-1.302;2023-03-17T06:02:43;98881.84;;;9.68;100.00
48652;BME280;34442;52.362;-1.302;2023-03-17T06:05:09;98894.44;;;9.68;100.00
48652;BME280;34442;52.362;-1.302;2023-03-17T06:07:35;98895.59;;;9.72;100.00
48652;BME280;34442;52.362;-1.302;2023-03-17T06:10:01;98888.59;;;9.71;100.00
48652;BME280;34442;52.362;-1.302;2023-03-17T06:12:27;98886.22;;;9.75;100.00
48652;BME280;34442;52.362;-1.302;2023-03-17T06:14:53;98890.06;;;9.79;100.00
48652;BME280;34442;52.362;-1.302;2023-03-17T06:17:18;98895.34;;;9.74;100.00
48652;BME280;34442;52.362;-1.302;2023-03-17T06:19:44;98881.47;;;9.77;100.00
48652;BME280;34442;52.362;-1.302;2023-03-17T06:22:09;98885.53;;;9.79;100.00
48652;BME280;34442;52.362;-1.302;2023-03-17T06:24:35;98892.28;;;9.82;100.00
48652;BME280;34442;52.362;-1.302;2023-03-17T06:27:01;98893.19;;;9.87;100.00
48652;BME280;34442;52.362;-1.302;2023-03-17T06:29:26;98898.56;;;9.87;100.00
48652;BME280;34442;52.362;-1.302;2023-03-17T06:31:53;98895.88;;;9.87;100.00
48652;BME280;34442;52.362;-1.302;2023-03-17T06:34:20;98906.75;;;9.92;100.00
48652;BME280;34442;52.362;-1.302;2023-03-17T06:36:47;98897.03;;;9.91;100.00
48652;BME280;34442;52.362;-1.302;2023-03-17T06:39:14;98899.97;;;9.90;100.00
48652;BME280;34442;52.362;-1.302;2023-03-17T06:41:40;98902.78;;;9.83;100.00
48652;BME280;34442;52.362;-1.302;2023-03-17T06:44:06;98916.78;;;9.85;100.00
48652;BME280;34442;52.362;-1.302;2023-03-17T06:46:33;98908.38;;;9.82;100.00
48652;BME280;34442;52.362;-1.302;2023-03-17T06:49:01;98914.34;;;9.84;100.00
48652;BME280;34442;52.362;-1.302;2023-03-17T06:51:28;98903.50;;;9.79;100.00
48652;BME280;34442;52.362;-1.302;2023-03-17T06:53:54;98899.88;;;9.85;100.00
48652;BME280;34442;52.362;-1.302;2023-03-17T06:56:20;98898.56;;;9.87;100.00
48652;BME280;34442;52.362;-1.302;2023-03-17T06:58:45;98892.72;;;9.90;100.00
48652;BME280;34442;52.362;-1.302;2023-03-17T07:01:11;98905.28;;;10.02;100.00
48652;BME280;34442;52.362;-1.302;2023-03-17T07:03:39;98914.06;;;9.97;100.00
48652;BME280;34442;52.362;-1.302;2023-03-17T07:06:05;98907.50;;;10.05;100.00
48652;BME280;34442;52.362;-1.302;2023-03-17T07:08:34;98905.72;;;10.10;100.00
48652;BME280;34442;52.362;-1.302;2023-03-17T07:11:00;98909.09;;;10.17;100.00
48652;BME280;34442;52.362;-1.302;2023-03-17T07:13:25;98906.41;;;10.17;100.00
48652;BME280;34442;52.362;-1.302;2023-03-17T07:15:51;98898.09;;;10.19;100.00
48652;BME280;34442;52.362;-1.302;2023-03-17T07:18:18;98910.94;;;10.29;100.00
48652;BME280;34442;52.362;-1.302;2023-03-17T07:20:44;98908.09;;;10.35;100.00
48652;BME280;34442;52.362;-1.302;2023-03-17T07:23:13;98917.06;;;10.41;100.00
48652;BME280;34442;52.362;-1.302;2023-03-17T07:25:39;98924.16;;;10.47;100.00
48652;BME280;34442;52.362;-1.302;2023-03-17T07:28:08;98910.72;;;10.47;100.00
48652;BME280;34442;52.362;-1.302;2023-03-17T07:30:33;98921.41;;;10.59;100.00
48652;BME280;34442;52.362;-1.302;2023-03-17T07:32:59;98918.81;;;10.64;100.00
48652;BME280;34442;52.362;-1.302;2023-03-17T07:35:25;98918.41;;;10.72;100.00
48652;BME280;34442;52.362;-1.302;2023-03-17T07:37:52;98920.94;;;10.79;100.00
48652;BME280;34442;52.362;-1.302;2023-03-17T07:40:19;98917.50;;;10.83;100.00
48652;BME280;34442;52.362;-1.302;2023-03-17T07:42:45;98927.19;;;11.01;100.00
48652;BME280;34442;52.362;-1.302;2023-03-17T07:45:10;98930.28;;;11.10;100.00
48652;BME280;34442;52.362;-1.302;2023-03-17T07:47:36;98931.41;;;11.14;100.00
48652;BME280;34442;52.362;-1.302;2023-03-17T07:50:02;98938.94;;;11.12;100.00
48652;BME280;34442;52.362;-1.302;2023-03-17T07:52:27;98937.94;;;11.18;100.00
48652;BME280;34442;52.362;-1.302;2023-03-17T07:54:53;98932.44;;;10.91;100.00
48652;BME280;34442;52.362;-1.302;2023-03-17T07:57:20;98934.78;;;10.87;100.00
48652;BME280;34442;52.362;-1.302;2023-03-17T07:59:46;98937.22;;;11.06;100.00
48652;BME280;34442;52.362;-1.302;2023-03-17T08:02:15;98939.06;;;11.22;100.00
48652;BME280;34442;52.362;-1.302;2023-03-17T08:04:42;98939.41;;;11.26;100.00
48652;BME280;34442;52.362;-1.302;2023-03-17T08:07:07;98936.97;;;11.24;100.00
48652;BME280;34442;52.362;-1.302;2023-03-17T08:09:35;98927.34;;;11.28;100.00
48652;BME280;34442;52.362;-1.302;2023-03-17T08:12:02;98930.59;;;11.30;100.00
48652;BME280;34442;52.362;-1.302;2023-03-17T08:14:28;98943.97;;;11.25;100.00
48652;BME280;34442;52.362;-1.302;2023-03-17T08:16:54;98946.91;;;11.40;100.00
48652;BME280;34442;52.362;-1.302;2023-03-17T08:19:20;98954.03;;;11.52;100.00
48652;BME280;34442;52.362;-1.302;2023-03-17T08:21:46;98949.22;;;11.54;100.00
48652;BME280;34442;52.362;-1.302;2023-03-17T08:24:11;98953.19;;;11.68;100.00
48652;BME280;34442;52.362;-1.302;2023-03-17T08:26:36;98939.50;;;11.70;100.00
48652;BME280;34442;52.362;-1.302;2023-03-17T08:29:02;98930.81;;;11.67;100.00
48652;BME280;34442;52.362;-1.302;2023-03-17T08:31:29;98929.84;;;11.74;100.00
48652;BME280;34442;52.362;-1.302;2023-03-17T08:33:55;98934.66;;;11.72;100.00
48652;BME280;34442;52.362;-1.302;2023-03-17T08:36:22;98932.16;;;11.65;100.00
48652;BME280;34442;52.362;-1.302;2023-03-17T08:38:48;98925.44;;;11.67;100.00
48652;BME280;34442;52.362;-1.302;2023-03-17T08:41:16;98927.09;;;11.68;100.00
48652;BME280;34442;52.362;-1.302;2023-03-17T08:43:43;98932.97;;;11.65;100.00
48652;BME280;34442;52.362;-1.302;2023-03-17T08:46:15;98937.59;;;11.48;100.00
48652;BME280;34442;52.362;-1.302;2023-03-17T08:48:44;98945.88;;;11.47;100.00
48652;BME280;34442;52.362;-1.302;2023-03-17T08:51:11;98958.69;;;11.56;100.00
48652;BME280;34442;52.362;-1.302;2023-03-17T08:53:38;98956.28;;;11.60;100.00
48652;BME280;34442;52.362;-1.302;2023-03-17T08:56:04;98951.88;;;11.71;100.00
48652;BME280;34442;52.362;-1.302;2023-03-17T08:58:29;98956.50;;;11.75;100.00
48652;BME280;34442;52.362;-1.302;2023-03-17T09:01:00;98959.53;;;11.79;100.00
48652;BME280;34442;52.362;-1.302;2023-03-17T09:03:29;98947.69;;;11.80;100.00
48652;BME280;34442;52.362;-1.302;2023-03-17T09:05:55;98952.47;;;11.95;100.00
48652;BME280;34442;52.362;-1.302;2023-03-17T09:08:21;98958.28;;;12.08;100.00
48652;BME280;34442;52.362;-1.302;2023-03-17T09:10:47;98951.09;;;12.14;100.00
48652;BME280;34442;52.362;-1.302;2023-03-17T09:13:14;98956.47;;;12.36;100.00
48652;BME280;34442;52.362;-1.302;2023-03-17T09:15:40;98952.53;;;12.49;100.00
48652;BME280;34442;52.362;-1.302;2023-03-17T09:18:06;98961.75;;;12.53;100.00
48652;BME280;34442;52.362;-1.302;2023-03-17T09:20:32;98951.16;;;12.46;100.00
48652;BME280;34442;52.362;-1.302;2023-03-17T09:23:03;98950.38;;;12.51;100.00
48652;BME280;34442;52.362;-1.302;2023-03-17T09:25:29;98952.53;;;12.49;100.00
48652;BME280;34442;52.362;-1.302;2023-03-17T09:27:55;98948.00;;;12.54;100.00
48652;BME280;34442;52.362;-1.302;2023-03-17T09:30:20;98938.50;;;12.47;100.00
48652;BME280;34442;52.362;-1.302;2023-03-17T09:32:46;98938.22;;;12.43;100.00
48652;BME280;34442;52.362;-1.302;2023-03-17T09:35:11;98937.63;;;12.41;100.00
48652;BME280;34442;52.362;-1.302;2023-03-17T09:37:37;98939.56;;;12.46;100.00
48652;BME280;34442;52.362;-1.302;2023-03-17T09:40:04;98939.03;;;12.44;100.00
48652;BME280;34442;52.362;-1.302;2023-03-17T09:42:42;98941.16;;;12.41;100.00
48652;BME280;34442;52.362;-1.302;2023-03-17T09:45:23;98940.91;;;12.43;100.00
48652;BME280;34442;52.362;-1.302;2023-03-17T09:51:04;98950.38;;;12.51;100.00
48652;BME280;34442;52.362;-1.302;2023-03-17T09:56:02;98960.25;;;12.67;100.00
48652;BME280;34442;52.362;-1.302;2023-03-17T09:58:33;98959.44;;;12.66;100.00
48652;BME280;34442;52.362;-1.302;2023-03-17T10:01:00;98962.44;;;12.70;100.00
48652;BME280;34442;52.362;-1.302;2023-03-17T10:03:27;98962.28;;;12.82;100.00
48652;BME280;34442;52.362;-1.302;2023-03-17T10:05:58;98960.53;;;12.98;100.00
48652;BME280;34442;52.362;-1.302;2023-03-17T10:08:30;98964.06;;;12.98;100.00
48652;BME280;34442;52.362;-1.302;2023-03-17T10:17:13;98967.09;;;13.07;100.00
48652;BME280;34442;52.362;-1.302;2023-03-17T10:19:51;98968.63;;;12.98;100.00
48652;BME280;34442;52.362;-1.302;2023-03-17T10:22:23;98984.19;;;12.85;100.00
48652;BME280;34442;52.362;-1.302;2023-03-17T10:24:55;98977.53;;;12.98;100.00
48652;BME280;34442;52.362;-1.302;2023-03-17T10:27:22;98968.97;;;13.06;100.00
48652;BME280;34442;52.362;-1.302;2023-03-17T10:29:51;98975.78;;;13.14;100.00
48652;BME280;34442;52.362;-1.302;2023-03-17T10:32:17;98975.50;;;13.15;100.00
48652;BME280;34442;52.362;-1.302;2023-03-17T10:34:42;98978.88;;;13.28;100.00
48652;BME280;34442;52.362;-1.302;2023-03-17T10:37:16;98982.03;;;13.20;100.00
48652;BME280;34442;52.362;-1.302;2023-03-17T10:39:55;98993.59;;;13.15;100.00
48652;BME280;34442;52.362;-1.302;2023-03-17T10:42:29;98990.19;;;12.93;100.00
48652;BME280;34442;52.362;-1.302;2023-03-17T10:45:12;98994.50;;;12.94;100.00
48652;BME280;34442;52.362;-1.302;2023-03-17T10:47:46;98997.34;;;13.09;100.00
48652;BME280;34442;52.362;-1.302;2023-03-17T10:52:52;99002.72;;;13.09;100.00
48652;BME280;34442;52.362;-1.302;2023-03-17T10:55:25;99003.28;;;13.11;100.00
48652;BME280;34442;52.362;-1.302;2023-03-17T10:58:00;99002.09;;;12.97;100.00
48652;BME280;34442;52.362;-1.302;2023-03-17T11:00:28;99004.00;;;13.01;100.00
48652;BME280;34442;52.362;-1.302;2023-03-17T11:02:58;98992.41;;;13.01;100.00
48652;BME280;34442;52.362;-1.302;2023-03-17T11:05:28;98995.84;;;13.23;100.00
48652;BME280;34442;52.362;-1.302;2023-03-17T11:08:06;98984.91;;;13.40;100.00
48652;BME280;34442;52.362;-1.302;2023-03-17T11:10:36;98976.66;;;13.57;100.00
48652;BME280;34442;52.362;-1.302;2023-03-17T11:13:02;98978.00;;;13.54;100.00
48652;BME280;34442;52.362;-1.302;2023-03-17T11:15:32;98975.84;;;13.56;100.00
48652;BME280;34442;52.362;-1.302;2023-03-17T11:18:01;98969.91;;;13.54;100.00
48652;BME280;34442;52.362;-1.302;2023-03-17T11:23:29;98972.28;;;13.46;100.00
48652;BME280;34442;52.362;-1.302;2023-03-17T11:26:07;98967.25;;;13.70;100.00
48652;BME280;34442;52.362;-1.302;2023-03-17T11:28:41;98970.81;;;13.75;100.00
48652;BME280;34442;52.362;-1.302;2023-03-17T11:31:14;98957.84;;;13.77;100.00
48652;BME280;34442;52.362;-1.302;2023-03-17T11:34:05;98962.25;;;13.88;100.00
48652;BME280;34442;52.362;-1.302;2023-03-17T11:39:16;98971.16;;;13.89;100.00
48652;BME280;34442;52.362;-1.302;2023-03-17T11:47:40;98960.97;;;14.06;100.00
48652;BME280;34442;52.362;-1.302;2023-03-17T11:50:31;98957.47;;;14.11;100.00
48652;BME280;34442;52.362;-1.302;2023-03-17T11:53:17;98955.34;;;14.23;100.00
48652;BME280;34442;52.362;-1.302;2023-03-17T11:55:52;98949.16;;;14.33;100.00
48652;BME280;34442;52.362;-1.302;2023-03-17T11:58:30;98963.00;;;14.52;100.00
48652;BME280;34442;52.362;-1.302;2023-03-17T12:00:59;98960.34;;;14.57;100.00
48652;BME280;34442;52.362;-1.302;2023-03-17T12:05:55;98969.19;;;14.37;100.00
48652;BME280;34442;52.362;-1.302;2023-03-17T12:10:59;98960.78;;;14.38;100.00
48652;BME280;34442;52.362;-1.302;2023-03-17T12:22:07;98959.13;;;14.17;100.00
48652;BME280;34442;52.362;-1.302;2023-03-17T12:24:49;98959.19;;;14.48;100.00
48652;BME280;34442;52.362;-1.302;2023-03-17T12:27:24;98964.88;;;14.41;100.00
48652;BME280;34442;52.362;-1.302;2023-03-17T12:29:57;98957.53;;;14.31;100.00
48652;BME280;34442;52.362;-1.302;2023-03-17T12:32:45;98954.00;;;14.26;100.00
48652;BME280;34442;52.362;-1.302;2023-03-17T12:35:29;98952.91;;;14.22;100.00
48652;BME280;34442;52.362;-1.302;2023-03-17T12:38:00;98949.69;;;14.40;100.00
48652;BME280;34442;52.362;-1.302;2023-03-17T12:40:34;98943.56;;;14.50;100.00
48652;BME280;34442;52.362;-1.302;2023-03-17T12:43:21;98943.31;;;14.87;100.00
48652;BME280;34442;52.362;-1.302;2023-03-17T12:52:05;98938.59;;;14.26;100.00
48652;BME280;34442;52.362;-1.302;2023-03-17T12:54:37;98935.09;;;14.31;100.00
48652;BME280;34442;52.362;-1.302;2023-03-17T12:57:13;98927.06;;;14.56;100.00
48652;BME280;34442;52.362;-1.302;2023-03-17T12:59:43;98926.66;;;14.12;100.00
48652;BME280;34442;52.362;-1.302;2023-03-17T13:04:55;98927.41;;;13.97;100.00
48652;BME280;34442;52.362;-1.302;2023-03-17T13:10:36;98911.59;;;14.36;100.00
48652;BME280;34442;52.362;-1.302;2023-03-17T13:24:33;98906.25;;;14.72;100.00
48652;BME280;34442;52.362;-1.302;2023-03-17T13:26:50;98893.19;;;14.44;100.00
48652;BME280;34442;52.362;-1.302;2023-03-17T13:34:51;98880.75;;;14.48;100.00
48652;BME280;34442;52.362;-1.302;2023-03-17T13:37:50;98879.19;;;14.62;100.00
48652;BME280;34442;52.362;-1.302;2023-03-17T13:40:14;98880.22;;;14.30;100.00
48652;BME280;34442;52.362;-1.302;2023-03-17T13:45:46;98882.44;;;14.59;100.00
48652;BME280;34442;52.362;-1.302;2023-03-17T13:53:57;98875.91;;;14.39;100.00
48652;BME280;34442;52.362;-1.302;2023-03-17T13:59:11;98868.91;;;14.59;100.00
48652;BME280;34442;52.362;-1.302;2023-03-17T14:01:41;98862.97;;;14.57;100.00
48652;BME280;34442;52.362;-1.302;2023-03-17T14:04:53;98863.22;;;14.45;100.00
48652;BME280;34442;52.362;-1.302;2023-03-17T14:07:23;98853.22;;;14.40;100.00
48652;BME280;34442;52.362;-1.302;2023-03-17T14:09:52;98850.19;;;14.27;100.00
48652;BME280;34442;52.362;-1.302;2023-03-17T14:12:38;98856.94;;;14.19;100.00